sensor_id;sensor_type;location;lat;lon;timestamp;temperature;humidity
67557;DHT22;54387;53.526;49.300;2023-05-01T00:01:22;19.60;34.80
67557;DHT22;54387;53.526;49.300;2023-05-01T00:03:48;19.60;34.90
67557;DHT22;54387;53.526;49.300;2023-05-01T00:06:15;19.60;34.90
67557;DHT22;54387;53.526;49.300;2023-05-01T00:08:41;19.50;35.00
67557;DHT22;54387;53.526;49.300;2023-05-01T00:11:07;19.50;35.00
67557;DHT22;54387;53.526;49.300;2023-05-01T00:13:36;19.40;35.20
67557;DHT22;54387;53.526;49.300;2023-05-01T00:16:06;19.40;35.20
67557;DHT22;54387;53.526;49.300;2023-05-01T00:18:33;19.30;35.10
67557;DHT22;54387;53.526;49.300;2023-05-01T00:21:00;19.30;35.20
67557;DHT22;54387;53.526;49.300;2023-05-01T00:23:27;19.30;35.30
67557;DHT22;54387;53.526;49.300;2023-05-01T00:25:54;19.30;35.30
67557;DHT22;54387;53.526;49.300;2023-05-01T00:28:20;19.20;36.30
67557;DHT22;54387;53.526;49.300;2023-05-01T00:30:46;19.20;35.50
67557;DHT22;54387;53.526;49.300;2023-05-01T00:33:12;19.20;35.50
67557;DHT22;54387;53.526;49.300;2023-05-01T00:35:38;19.10;35.50
67557;DHT22;54387;53.526;49.300;2023-05-01T00:38:05;19.10;35.60
67557;DHT22;54387;53.526;49.300;2023-05-01T00:40:32;19.10;35.60
67557;DHT22;54387;53.526;49.300;2023-05-01T00:42:58;19.00;35.60
67557;DHT22;54387;53.526;49.300;2023-05-01T00:45:24;19.10;35.70
67557;DHT22;54387;53.526;49.300;2023-05-01T00:47:50;19.10;35.60
67557;DHT22;54387;53.526;49.300;2023-05-01T00:50:17;19.10;35.60
67557;DHT22;54387;53.526;49.300;2023-05-01T00:52:43;19.10;35.60
67557;DHT22;54387;53.526;49.300;2023-05-01T00:55:10;19.10;35.50
67557;DHT22;54387;53.526;49.300;2023-05-01T00:57:37;19.10;35.50
67557;DHT22;54387;53.526;49.300;2023-05-01T01:00:04;19.20;35.50
67557;DHT22;54387;53.526;49.300;2023-05-01T01:02:30;19.20;35.50
67557;DHT22;54387;53.526;49.300;2023-05-01T01:04:57;19.20;35.50
67557;DHT22;54387;53.526;49.300;2023-05-01T01:15:13;19.30;35.40
67557;DHT22;54387;53.526;49.300;2023-05-01T01:23:12;19.30;35.30
67557;DHT22;54387;53.526;49.300;2023-05-01T01:28:20;19.30;35.40
67557;DHT22;54387;53.526;49.300;2023-05-01T01:36:05;19.30;35.50
67557;DHT22;54387;53.526;49.300;2023-05-01T01:38:38;19.30;35.50
67557;DHT22;54387;53.526;49.300;2023-05-01T01:41:11;19.30;35.50
67557;DHT22;54387;53.526;49.300;2023-05-01T01:43:39;19.20;35.50
67557;DHT22;54387;53.526;49.300;2023-05-01T01:46:07;19.20;35.50
67557;DHT22;54387;53.526;49.300;2023-05-01T01:48:36;19.30;35.50
67557;DHT22;54387;53.526;49.300;2023-05-01T01:51:05;19.30;35.40
67557;DHT22;54387;53.526;49.300;2023-05-01T01:53:31;19.30;35.50
67557;DHT22;54387;53.526;49.300;2023-05-01T01:55:58;19.30;35.50
67557;DHT22;54387;53.526;49.300;2023-05-01T01:58:24;19.30;35.40
67557;DHT22;54387;53.526;49.300;2023-05-01T02:00:52;19.40;35.50
67557;DHT22;54387;53.526;49.300;2023-05-01T02:03:18;19.40;35.40
67557;DHT22;54387;53.526;49.300;2023-05-01T02:05:46;19.40;35.30
67557;DHT22;54387;53.526;49.300;2023-05-01T02:08:13;19.40;35.30
67557;DHT22;54387;53.526;49.300;2023-05-01T02:10:41;19.50;35.40
67557;DHT22;54387;53.526;49.300;2023-05-01T02:13:08;19.50;35.30
67557;DHT22;54387;53.526;49.300;2023-05-01T02:15:35;19.50;35.30
67557;DHT22;54387;53.526;49.300;2023-05-01T02:18:02;19.50;35.30
67557;DHT22;54387;53.526;49.300;2023-05-01T02:20:30;19.50;35.20
67557;DHT22;54387;53.526;49.300;2023-05-01T02:22:57;19.60;35.10
67557;DHT22;54387;53.526;49.300;2023-05-01T02:25:23;19.60;35.00
67557;DHT22;54387;53.526;49.300;2023-05-01T02:27:56;19.70;35.00
67557;DHT22;54387;53.526;49.300;2023-05-01T02:30:25;19.70;35.00
67557;DHT22;54387;53.526;49.300;2023-05-01T02:32:51;19.80;35.00
67557;DHT22;54387;53.526;49.300;2023-05-01T02:35:17;19.80;34.90
67557;DHT22;54387;53.526;49.300;2023-05-01T02:37:43;19.80;34.90
67557;DHT22;54387;53.526;49.300;2023-05-01T02:40:11;19.80;35.00
67557;DHT22;54387;53.526;49.300;2023-05-01T02:42:43;19.80;34.90
67557;DHT22;54387;53.526;49.300;2023-05-01T02:45:12;19.80;34.90
67557;DHT22;54387;53.526;49.300;2023-05-01T02:47:41;19.80;35.00
67557;DHT22;54387;53.526;49.300;2023-05-01T02:50:08;19.70;35.00
67557;DHT22;54387;53.526;49.300;2023-05-01T02:52:36;19.70;35.00
67557;DHT22;54387;53.526;49.300;2023-05-01T02:55:02;19.70;35.10
67557;DHT22;54387;53.526;49.300;2023-05-01T02:57:31;19.60;35.00
67557;DHT22;54387;53.526;49.300;2023-05-01T02:59:57;19.60;35.20
67557;DHT22;54387;53.526;49.300;2023-05-01T03:02:24;19.60;35.20
67557;DHT22;54387;53.526;49.300;2023-05-01T03:04:50;19.60;35.40
67557;DHT22;54387;53.526;49.300;2023-05-01T03:07:17;19.50;35.40
67557;DHT22;54387;53.526;49.300;2023-05-01T03:09:43;19.50;35.50
67557;DHT22;54387;53.526;49.300;2023-05-01T03:12:09;19.50;35.50
67557;DHT22;54387;53.526;49.300;2023-05-01T03:14:36;19.40;35.50
67557;DHT22;54387;53.526;49.300;2023-05-01T03:17:02;19.40;35.60
67557;DHT22;54387;53.526;49.300;2023-05-01T03:19:28;19.40;35.80
67557;DHT22;54387;53.526;49.300;2023-05-01T03:21:55;19.40;35.90
67557;DHT22;54387;53.526;49.300;2023-05-01T03:24:22;19.40;35.80
67557;DHT22;54387;53.526;49.300;2023-05-01T03:26:49;19.40;35.90
67557;DHT22;54387;53.526;49.300;2023-05-01T03:29:15;19.40;36.00
67557;DHT22;54387;53.526;49.300;2023-05-01T03:31:41;19.40;36.00
67557;DHT22;54387;53.526;49.300;2023-05-01T03:34:07;19.40;36.10
67557;DHT22;54387;53.526;49.300;2023-05-01T03:36:34;19.40;36.10
67557;DHT22;54387;53.526;49.300;2023-05-01T03:39:01;19.40;36.10
67557;DHT22;54387;53.526;49.300;2023-05-01T03:41:27;19.40;36.20
67557;DHT22;54387;53.526;49.300;2023-05-01T03:43:53;19.40;36.30
67557;DHT22;54387;53.526;49.300;2023-05-01T03:46:20;19.40;36.20
67557;DHT22;54387;53.526;49.300;2023-05-01T03:48:46;19.50;36.30
67557;DHT22;54387;53.526;49.300;2023-05-01T03:51:12;19.50;36.30
67557;DHT22;54387;53.526;49.300;2023-05-01T03:53:42;19.60;36.70
67557;DHT22;54387;53.526;49.300;2023-05-01T03:56:08;19.70;36.30
67557;DHT22;54387;53.526;49.300;2023-05-01T03:58:35;19.70;36.10
67557;DHT22;54387;53.526;49.300;2023-05-01T04:01:01;19.90;36.10
67557;DHT22;54387;53.526;49.300;2023-05-01T04:03:28;19.90;36.20
67557;DHT22;54387;53.526;49.300;2023-05-01T04:05:54;20.00;36.20
67557;DHT22;54387;53.526;49.300;2023-05-01T04:08:21;20.10;36.30
67557;DHT22;54387;53.526;49.300;2023-05-01T04:10:47;20.10;36.10
67557;DHT22;54387;53.526;49.300;2023-05-01T04:13:13;20.10;36.00
67557;DHT22;54387;53.526;49.300;2023-05-01T04:15:43;20.00;35.90
67557;DHT22;54387;53.526;49.300;2023-05-01T04:18:09;20.00;37.00
67557;DHT22;54387;53.526;49.300;2023-05-01T04:20:35;20.00;36.10
67557;DHT22;54387;53.526;49.300;2023-05-01T04:23:01;20.00;36.20
67557;DHT22;54387;53.526;49.300;2023-05-01T04:25:28;19.90;36.10
67557;DHT22;54387;53.526;49.300;2023-05-01T04:27:54;20.00;36.30
67557;DHT22;54387;53.526;49.300;2023-05-01T04:30:20;20.10;36.40
67557;DHT22;54387;53.526;49.300;2023-05-01T04:32:46;20.10;36.10
67557;DHT22;54387;53.526;49.300;2023-05-01T04:35:13;20.20;36.00
67557;DHT22;54387;53.526;49.300;2023-05-01T04:37:39;20.30;36.10
67557;DHT22;54387;53.526;49.300;2023-05-01T04:40:05;20.40;36.10
67557;DHT22;54387;53.526;49.300;2023-05-01T04:42:32;20.50;36.00
67557;DHT22;54387;53.526;49.300;2023-05-01T04:44:58;20.60;35.80
67557;DHT22;54387;53.526;49.300;2023-05-01T04:47:29;20.70;35.60
67557;DHT22;54387;53.526;49.300;2023-05-01T04:49:55;20.80;35.40
67557;DHT22;54387;53.526;49.300;2023-05-01T04:52:21;20.90;35.10
67557;DHT22;54387;53.526;49.300;2023-05-01T04:54:47;21.00;35.00
67557;DHT22;54387;53.526;49.300;2023-05-01T04:57:14;21.10;35.00
67557;DHT22;54387;53.526;49.300;2023-05-01T04:59:41;21.20;34.90
67557;DHT22;54387;53.526;49.300;2023-05-01T05:02:08;21.30;34.70
67557;DHT22;54387;53.526;49.300;2023-05-01T05:04:34;21.30;34.60
67557;DHT22;54387;53.526;49.300;2023-05-01T05:07:00;21.40;34.40
67557;DHT22;54387;53.526;49.300;2023-05-01T05:09:26;21.50;34.40
67557;DHT22;54387;53.526;49.300;2023-05-01T05:11:52;21.60;34.30
67557;DHT22;54387;53.526;49.300;2023-05-01T05:14:19;21.70;34.30
67557;DHT22;54387;53.526;49.300;2023-05-01T05:16:45;21.80;34.10
67557;DHT22;54387;53.526;49.300;2023-05-01T05:19:13;21.90;34.00
67557;DHT22;54387;53.526;49.300;2023-05-01T05:21:40;22.00;33.90
67557;DHT22;54387;53.526;49.300;2023-05-01T05:24:06;22.10;33.70
67557;DHT22;54387;53.526;49.300;2023-05-01T05:26:35;22.20;33.50
67557;DHT22;54387;53.526;49.300;2023-05-01T05:29:01;22.20;33.30
67557;DHT22;54387;53.526;49.300;2023-05-01T05:31:27;22.30;33.20
67557;DHT22;54387;53.526;49.300;2023-05-01T05:33:54;22.40;33.10
67557;DHT22;54387;53.526;49.300;2023-05-01T05:36:20;22.50;33.00
67557;DHT22;54387;53.526;49.300;2023-05-01T05:38:46;22.70;33.00
67557;DHT22;54387;53.526;49.300;2023-05-01T05:41:12;22.90;32.90
67557;DHT22;54387;53.526;49.300;2023-05-01T05:43:39;23.00;32.50
67557;DHT22;54387;53.526;49.300;2023-05-01T05:46:05;23.20;32.20
67557;DHT22;54387;53.526;49.300;2023-05-01T05:48:31;23.30;32.10
67557;DHT22;54387;53.526;49.300;2023-05-01T05:50:58;23.40;31.80
67557;DHT22;54387;53.526;49.300;2023-05-01T05:53:24;23.50;31.60
67557;DHT22;54387;53.526;49.300;2023-05-01T05:55:50;23.70;31.50
67557;DHT22;54387;53.526;49.300;2023-05-01T05:58:17;23.80;32.40
67557;DHT22;54387;53.526;49.300;2023-05-01T06:00:46;23.90;31.20
67557;DHT22;54387;53.526;49.300;2023-05-01T06:03:13;24.00;30.90
67557;DHT22;54387;53.526;49.300;2023-05-01T06:05:39;24.10;30.90
67557;DHT22;54387;53.526;49.300;2023-05-01T06:08:06;24.20;30.40
67557;DHT22;54387;53.526;49.300;2023-05-01T06:10:32;24.30;30.00
67557;DHT22;54387;53.526;49.300;2023-05-01T06:12:58;24.40;30.00
67557;DHT22;54387;53.526;49.300;2023-05-01T06:15:24;24.50;30.00
67557;DHT22;54387;53.526;49.300;2023-05-01T06:17:51;24.60;29.90
67557;DHT22;54387;53.526;49.300;2023-05-01T06:20:17;24.70;29.80
67557;DHT22;54387;53.526;49.300;2023-05-01T06:22:44;24.70;29.20
67557;DHT22;54387;53.526;49.300;2023-05-01T06:25:10;24.70;29.20
67557;DHT22;54387;53.526;49.300;2023-05-01T06:27:36;24.80;29.40
67557;DHT22;54387;53.526;49.300;2023-05-01T06:30:02;24.80;30.10
67557;DHT22;54387;53.526;49.300;2023-05-01T06:32:29;24.90;29.20
67557;DHT22;54387;53.526;49.300;2023-05-01T06:34:55;25.00;29.20
67557;DHT22;54387;53.526;49.300;2023-05-01T06:37:21;25.00;29.20
67557;DHT22;54387;53.526;49.300;2023-05-01T06:39:48;25.10;29.30
67557;DHT22;54387;53.526;49.300;2023-05-01T06:42:14;25.20;29.20
67557;DHT22;54387;53.526;49.300;2023-05-01T06:44:41;25.30;29.00
67557;DHT22;54387;53.526;49.300;2023-05-01T06:47:07;25.30;28.90
67557;DHT22;54387;53.526;49.300;2023-05-01T06:49:34;25.30;28.80
67557;DHT22;54387;53.526;49.300;2023-05-01T06:52:00;25.40;28.50
67557;DHT22;54387;53.526;49.300;2023-05-01T06:54:26;25.40;28.10
67557;DHT22;54387;53.526;49.300;2023-05-01T06:56:53;25.40;28.00
67557;DHT22;54387;53.526;49.300;2023-05-01T06:59:19;25.30;28.10
67557;DHT22;54387;53.526;49.300;2023-05-01T07:01:45;25.40;28.00
67557;DHT22;54387;53.526;49.300;2023-05-01T07:04:11;25.40;27.90
67557;DHT22;54387;53.526;49.300;2023-05-01T07:06:38;25.40;28.00
67557;DHT22;54387;53.526;49.300;2023-05-01T07:09:04;25.50;27.90
67557;DHT22;54387;53.526;49.300;2023-05-01T07:11:31;25.60;28.00
67557;DHT22;54387;53.526;49.300;2023-05-01T07:13:57;25.70;28.00
67557;DHT22;54387;53.526;49.300;2023-05-01T07:16:23;25.80;27.90
67557;DHT22;54387;53.526;49.300;2023-05-01T07:18:50;26.00;27.90
67557;DHT22;54387;53.526;49.300;2023-05-01T07:21:16;26.00;27.80
67557;DHT22;54387;53.526;49.300;2023-05-01T07:23:42;26.20;27.90
67557;DHT22;54387;53.526;49.300;2023-05-01T07:26:09;26.30;27.80
67557;DHT22;54387;53.526;49.300;2023-05-01T07:28:35;26.50;27.70
67557;DHT22;54387;53.526;49.300;2023-05-01T07:31:01;26.60;27.70
67557;DHT22;54387;53.526;49.300;2023-05-01T07:33:28;26.70;27.20
67557;DHT22;54387;53.526;49.300;2023-05-01T07:35:54;26.80;27.00
67557;DHT22;54387;53.526;49.300;2023-05-01T07:38:20;26.90;27.10
67557;DHT22;54387;53.526;49.300;2023-05-01T07:40:46;27.00;27.00
67557;DHT22;54387;53.526;49.300;2023-05-01T07:43:13;27.10;27.10
67557;DHT22;54387;53.526;49.300;2023-05-01T07:45:39;27.20;26.70
67557;DHT22;54387;53.526;49.300;2023-05-01T07:48:06;27.20;26.20
67557;DHT22;54387;53.526;49.300;2023-05-01T07:50:32;27.30;25.90
67557;DHT22;54387;53.526;49.300;2023-05-01T07:52:58;27.30;26.10
67557;DHT22;54387;53.526;49.300;2023-05-01T07:55:25;27.30;26.20
67557;DHT22;54387;53.526;49.300;2023-05-01T07:57:51;27.20;26.20
67557;DHT22;54387;53.526;49.300;2023-05-01T08:00:17;27.20;26.40
67557;DHT22;54387;53.526;49.300;2023-05-01T08:02:43;27.20;26.10
67557;DHT22;54387;53.526;49.300;2023-05-01T08:05:10;27.30;26.20
67557;DHT22;54387;53.526;49.300;2023-05-01T08:07:36;27.30;26.30
67557;DHT22;54387;53.526;49.300;2023-05-01T08:10:02;27.40;26.40
67557;DHT22;54387;53.526;49.300;2023-05-01T08:12:28;27.60;26.30
67557;DHT22;54387;53.526;49.300;2023-05-01T08:14:56;27.70;25.80
67557;DHT22;54387;53.526;49.300;2023-05-01T08:17:22;27.80;25.70
67557;DHT22;54387;53.526;49.300;2023-05-01T08:19:48;27.90;25.50
67557;DHT22;54387;53.526;49.300;2023-05-01T08:22:16;27.90;25.20
67557;DHT22;54387;53.526;49.300;2023-05-01T08:24:42;28.00;25.20
67557;DHT22;54387;53.526;49.300;2023-05-01T08:27:09;28.00;25.40
67557;DHT22;54387;53.526;49.300;2023-05-01T08:29:35;28.10;25.40
67557;DHT22;54387;53.526;49.300;2023-05-01T08:32:01;28.20;25.40
67557;DHT22;54387;53.526;49.300;2023-05-01T08:34:27;28.20;25.10
67557;DHT22;54387;53.526;49.300;2023-05-01T08:36:54;28.30;25.10
67557;DHT22;54387;53.526;49.300;2023-05-01T08:39:20;28.30;25.10
67557;DHT22;54387;53.526;49.300;2023-05-01T08:41:46;28.40;25.00
67557;DHT22;54387;53.526;49.300;2023-05-01T08:44:13;28.50;24.80
67557;DHT22;54387;53.526;49.300;2023-05-01T08:46:47;28.50;24.90
67557;DHT22;54387;53.526;49.300;2023-05-01T08:49:15;28.60;24.90
67557;DHT22;54387;53.526;49.300;2023-05-01T08:51:45;28.70;24.80
67557;DHT22;54387;53.526;49.300;2023-05-01T08:54:12;28.70;24.60
67557;DHT22;54387;53.526;49.300;2023-05-01T08:56:39;28.80;24.80
67557;DHT22;54387;53.526;49.300;2023-05-01T08:59:08;28.90;24.80
67557;DHT22;54387;53.526;49.300;2023-05-01T09:01:34;29.00;24.60
67557;DHT22;54387;53.526;49.300;2023-05-01T09:04:02;29.10;24.70
67557;DHT22;54387;53.526;49.300;2023-05-01T09:06:29;29.20;24.50
67557;DHT22;54387;53.526;49.300;2023-05-01T09:08:57;29.30;24.40
67557;DHT22;54387;53.526;49.300;2023-05-01T09:11:24;29.50;24.40
67557;DHT22;54387;53.526;49.300;2023-05-01T09:13:51;29.60;24.00
67557;DHT22;54387;53.526;49.300;2023-05-01T09:16:18;29.90;24.00
67557;DHT22;54387;53.526;49.300;2023-05-01T09:18:44;30.20;23.80
67557;DHT22;54387;53.526;49.300;2023-05-01T09:21:11;30.70;23.80
67557;DHT22;54387;53.526;49.300;2023-05-01T09:23:38;31.40;23.70
67557;DHT22;54387;53.526;49.300;2023-05-01T09:26:06;32.40;23.10
67557;DHT22;54387;53.526;49.300;2023-05-01T09:28:39;33.50;22.70
67557;DHT22;54387;53.526;49.300;2023-05-01T09:31:23;35.00;22.60
67557;DHT22;54387;53.526;49.300;2023-05-01T09:33:53;36.80;22.10
67557;DHT22;54387;53.526;49.300;2023-05-01T09:36:20;38.70;21.10
67557;DHT22;54387;53.526;49.300;2023-05-01T09:38:47;40.30;20.10
67557;DHT22;54387;53.526;49.300;2023-05-01T09:41:18;41.60;19.40
67557;DHT22;54387;53.526;49.300;2023-05-01T09:43:50;42.60;19.00
67557;DHT22;54387;53.526;49.300;2023-05-01T09:46:17;43.10;18.50
67557;DHT22;54387;53.526;49.300;2023-05-01T09:51:21;44.30;18.10
67557;DHT22;54387;53.526;49.300;2023-05-01T09:53:48;45.10;17.90
67557;DHT22;54387;53.526;49.300;2023-05-01T09:56:14;46.00;17.80
67557;DHT22;54387;53.526;49.300;2023-05-01T09:58:40;46.80;17.30
67557;DHT22;54387;53.526;49.300;2023-05-01T10:01:06;47.60;17.40
67557;DHT22;54387;53.526;49.300;2023-05-01T10:03:33;48.50;16.90
67557;DHT22;54387;53.526;49.300;2023-05-01T10:05:59;49.20;16.80
67557;DHT22;54387;53.526;49.300;2023-05-01T10:08:43;49.40;16.20
67557;DHT22;54387;53.526;49.300;2023-05-01T10:11:10;49.60;16.00
67557;DHT22;54387;53.526;49.300;2023-05-01T10:13:36;50.00;16.30
67557;DHT22;54387;53.526;49.300;2023-05-01T10:16:02;50.90;16.30
67557;DHT22;54387;53.526;49.300;2023-05-01T10:18:33;51.80;16.00
67557;DHT22;54387;53.526;49.300;2023-05-01T10:20:59;52.40;15.90
67557;DHT22;54387;53.526;49.300;2023-05-01T10:23:26;53.00;15.90
67557;DHT22;54387;53.526;49.300;2023-05-01T10:25:52;53.50;15.70
67557;DHT22;54387;53.526;49.300;2023-05-01T10:28:21;54.30;15.80
67557;DHT22;54387;53.526;49.300;2023-05-01T10:30:49;54.70;15.70
67557;DHT22;54387;53.526;49.300;2023-05-01T10:33:16;55.30;15.50
67557;DHT22;54387;53.526;49.300;2023-05-01T10:35:47;55.60;15.40
67557;DHT22;54387;53.526;49.300;2023-05-01T10:38:21;55.70;15.00
67557;DHT22;54387;53.526;49.300;2023-05-01T10:40:48;55.30;14.10
67557;DHT22;54387;53.526;49.300;2023-05-01T10:43:24;54.60;14.50
67557;DHT22;54387;53.526;49.300;2023-05-01T10:45:52;54.20;14.70
67557;DHT22;54387;53.526;49.300;2023-05-01T10:51:16;54.10;14.60
67557;DHT22;54387;53.526;49.300;2023-05-01T10:53:45;54.00;14.70
67557;DHT22;54387;53.526;49.300;2023-05-01T10:58:54;52.20;14.30
67557;DHT22;54387;53.526;49.300;2023-05-01T11:03:53;50.20;14.30
67557;DHT22;54387;53.526;49.300;2023-05-01T11:06:19;49.50;14.20
67557;DHT22;54387;53.526;49.300;2023-05-01T11:08:45;49.20;14.40
67557;DHT22;54387;53.526;49.300;2023-05-01T11:14:08;48.70;15.30
67557;DHT22;54387;53.526;49.300;2023-05-01T11:19:02;48.50;14.20
67557;DHT22;54387;53.526;49.300;2023-05-01T11:21:28;48.60;14.40
67557;DHT22;54387;53.526;49.300;2023-05-01T11:23:55;48.10;14.20
67557;DHT22;54387;53.526;49.300;2023-05-01T11:26:22;46.90;14.10
67557;DHT22;54387;53.526;49.300;2023-05-01T11:28:50;45.30;14.30
67557;DHT22;54387;53.526;49.300;2023-05-01T11:31:26;43.70;14.40
67557;DHT22;54387;53.526;49.300;2023-05-01T11:33:59;42.30;14.70
67557;DHT22;54387;53.526;49.300;2023-05-01T11:36:26;41.20;15.00
67557;DHT22;54387;53.526;49.300;2023-05-01T11:38:53;40.20;15.10
67557;DHT22;54387;53.526;49.300;2023-05-01T11:41:21;39.40;15.30
67557;DHT22;54387;53.526;49.300;2023-05-01T11:43:48;38.60;15.50
67557;DHT22;54387;53.526;49.300;2023-05-01T11:46:22;38.10;15.80
67557;DHT22;54387;53.526;49.300;2023-05-01T11:48:49;37.70;16.00
67557;DHT22;54387;53.526;49.300;2023-05-01T11:51:15;37.50;16.20
67557;DHT22;54387;53.526;49.300;2023-05-01T11:53:41;37.20;16.50
67557;DHT22;54387;53.526;49.300;2023-05-01T11:56:20;36.90;16.70
67557;DHT22;54387;53.526;49.300;2023-05-01T11:58:46;36.50;16.80
67557;DHT22;54387;53.526;49.300;2023-05-01T12:01:13;36.10;17.10
67557;DHT22;54387;53.526;49.300;2023-05-01T12:03:40;35.80;17.30
67557;DHT22;54387;53.526;49.300;2023-05-01T12:06:08;35.60;17.50
67557;DHT22;54387;53.526;49.300;2023-05-01T12:08:35;35.30;17.60
67557;DHT22;54387;53.526;49.300;2023-05-01T12:11:01;35.10;17.70
67557;DHT22;54387;53.526;49.300;2023-05-01T12:13:28;34.80;17.80
67557;DHT22;54387;53.526;49.300;2023-05-01T12:15:55;34.60;18.20
67557;DHT22;54387;53.526;49.300;2023-05-01T12:18:21;34.50;18.60
67557;DHT22;54387;53.526;49.300;2023-05-01T12:20:48;34.60;18.90
67557;DHT22;54387;53.526;49.300;2023-05-01T12:23:30;34.90;18.90
67557;DHT22;54387;53.526;49.300;2023-05-01T12:25:57;35.10;19.00
67557;DHT22;54387;53.526;49.300;2023-05-01T12:28:23;35.10;20.00
67557;DHT22;54387;53.526;49.300;2023-05-01T12:30:49;34.80;19.40
67557;DHT22;54387;53.526;49.300;2023-05-01T12:33:19;34.30;19.70
67557;DHT22;54387;53.526;49.300;2023-05-01T12:35:46;34.00;20.00
67557;DHT22;54387;53.526;49.300;2023-05-01T12:38:16;33.90;20.30
67557;DHT22;54387;53.526;49.300;2023-05-01T12:40:52;34.00;20.50
67557;DHT22;54387;53.526;49.300;2023-05-01T12:43:28;34.60;20.50
67557;DHT22;54387;53.526;49.300;2023-05-01T12:45:55;35.40;20.40
67557;DHT22;54387;53.526;49.300;2023-05-01T12:48:21;35.90;20.20
67557;DHT22;54387;53.526;49.300;2023-05-01T12:50:47;36.20;20.20
67557;DHT22;54387;53.526;49.300;2023-05-01T12:53:19;36.30;20.10
67557;DHT22;54387;53.526;49.300;2023-05-01T12:55:48;36.40;20.20
67557;DHT22;54387;53.526;49.300;2023-05-01T12:58:14;36.30;20.20
67557;DHT22;54387;53.526;49.300;2023-05-01T13:00:42;35.90;20.40
67557;DHT22;54387;53.526;49.300;2023-05-01T13:03:08;35.40;20.60
67557;DHT22;54387;53.526;49.300;2023-05-01T13:05:34;34.60;20.90
67557;DHT22;54387;53.526;49.300;2023-05-01T13:08:01;33.90;21.30
67557;DHT22;54387;53.526;49.300;2023-05-01T13:10:28;33.40;21.80
67557;DHT22;54387;53.526;49.300;2023-05-01T13:12:55;32.90;22.30
67557;DHT22;54387;53.526;49.300;2023-05-01T13:15:21;32.40;22.80
67557;DHT22;54387;53.526;49.300;2023-05-01T13:17:47;31.80;23.10
67557;DHT22;54387;53.526;49.300;2023-05-01T13:20:13;31.30;23.60
67557;DHT22;54387;53.526;49.300;2023-05-01T13:22:40;30.90;24.00
67557;DHT22;54387;53.526;49.300;2023-05-01T13:25:16;30.50;24.30
67557;DHT22;54387;53.526;49.300;2023-05-01T13:27:47;30.20;24.80
67557;DHT22;54387;53.526;49.300;2023-05-01T13:30:14;30.00;25.00
67557;DHT22;54387;53.526;49.300;2023-05-01T13:32:40;29.80;25.10
67557;DHT22;54387;53.526;49.300;2023-05-01T13:35:07;29.70;25.40
67557;DHT22;54387;53.526;49.300;2023-05-01T13:37:37;29.60;25.60
67557;DHT22;54387;53.526;49.300;2023-05-01T13:40:04;29.50;25.60
67557;DHT22;54387;53.526;49.300;2023-05-01T13:42:31;29.60;25.70
67557;DHT22;54387;53.526;49.300;2023-05-01T13:44:57;29.70;25.60
67557;DHT22;54387;53.526;49.300;2023-05-01T13:47:23;29.70;25.50
67557;DHT22;54387;53.526;49.300;2023-05-01T13:49:53;29.70;25.60
67557;DHT22;54387;53.526;49.300;2023-05-01T13:52:19;29.70;25.60
67557;DHT22;54387;53.526;49.300;2023-05-01T13:54:46;29.70;25.70
67557;DHT22;54387;53.526;49.300;2023-05-01T13:57:13;29.60;25.60
67557;DHT22;54387;53.526;49.300;2023-05-01T13:59:40;29.50;25.50
67557;DHT22;54387;53.526;49.300;2023-05-01T14:02:20;29.50;25.70
67557;DHT22;54387;53.526;49.300;2023-05-01T14:04:49;29.50;25.80
67557;DHT22;54387;53.526;49.300;2023-05-01T14:07:16;29.60;25.70
67557;DHT22;54387;53.526;49.300;2023-05-01T14:09:43;29.80;25.70
67557;DHT22;54387;53.526;49.300;2023-05-01T14:12:11;30.00;25.50
67557;DHT22;54387;53.526;49.300;2023-05-01T14:14:37;30.00;25.50
67557;DHT22;54387;53.526;49.300;2023-05-01T14:17:08;29.90;25.50
67557;DHT22;54387;53.526;49.300;2023-05-01T14:19:35;29.80;25.60
67557;DHT22;54387;53.526;49.300;2023-05-01T14:22:02;29.80;25.60
67557;DHT22;54387;53.526;49.300;2023-05-01T14:24:28;29.80;25.60
67557;DHT22;54387;53.526;49.300;2023-05-01T14:26:54;29.80;25.70
67557;DHT22;54387;53.526;49.300;2023-05-01T14:29:22;29.70;25.80
67557;DHT22;54387;53.526;49.300;2023-05-01T14:31:48;29.60;25.70
67557;DHT22;54387;53.526;49.300;2023-05-01T14:34:14;29.60;25.90
67557;DHT22;54387;53.526;49.300;2023-05-01T14:36:42;29.80;26.00
67557;DHT22;54387;53.526;49.300;2023-05-01T14:39:08;30.20;25.90
67557;DHT22;54387;53.526;49.300;2023-05-01T14:41:34;30.60;25.60
67557;DHT22;54387;53.526;49.300;2023-05-01T14:44:03;30.60;25.30
67557;DHT22;54387;53.526;49.300;2023-05-01T14:46:32;30.50;25.40
67557;DHT22;54387;53.526;49.300;2023-05-01T14:48:59;30.10;25.50
67557;DHT22;54387;53.526;49.300;2023-05-01T14:51:26;29.70;25.60
67557;DHT22;54387;53.526;49.300;2023-05-01T14:53:52;29.30;25.80
67557;DHT22;54387;53.526;49.300;2023-05-01T14:56:18;29.00;26.00
67557;DHT22;54387;53.526;49.300;2023-05-01T14:58:45;28.70;26.20
67557;DHT22;54387;53.526;49.300;2023-05-01T15:01:13;28.50;26.60
67557;DHT22;54387;53.526;49.300;2023-05-01T15:03:39;28.20;26.80
67557;DHT22;54387;53.526;49.300;2023-05-01T15:06:06;28.00;26.90
67557;DHT22;54387;53.526;49.300;2023-05-01T15:08:34;27.80;27.00
67557;DHT22;54387;53.526;49.300;2023-05-01T15:11:00;27.70;27.10
67557;DHT22;54387;53.526;49.300;2023-05-01T15:13:26;27.50;27.30
67557;DHT22;54387;53.526;49.300;2023-05-01T15:15:53;27.40;27.50
67557;DHT22;54387;53.526;49.300;2023-05-01T15:18:24;27.20;27.40
67557;DHT22;54387;53.526;49.300;2023-05-01T15:20:50;27.10;27.70
67557;DHT22;54387;53.526;49.300;2023-05-01T15:23:16;26.90;28.20
67557;DHT22;54387;53.526;49.300;2023-05-01T15:25:42;26.80;28.10
67557;DHT22;54387;53.526;49.300;2023-05-01T15:28:09;26.60;28.20
67557;DHT22;54387;53.526;49.300;2023-05-01T15:30:35;26.50;28.40
67557;DHT22;54387;53.526;49.300;2023-05-01T15:33:01;26.30;28.50
67557;DHT22;54387;53.526;49.300;2023-05-01T15:35:29;26.20;28.70
67557;DHT22;54387;53.526;49.300;2023-05-01T15:37:55;26.00;29.00
67557;DHT22;54387;53.526;49.300;2023-05-01T15:40:22;25.80;29.30
67557;DHT22;54387;53.526;49.300;2023-05-01T15:42:48;25.70;29.20
67557;DHT22;54387;53.526;49.300;2023-05-01T15:45:15;25.50;29.30
67557;DHT22;54387;53.526;49.300;2023-05-01T15:47:41;25.40;29.40
67557;DHT22;54387;53.526;49.300;2023-05-01T15:50:07;25.20;29.40
67557;DHT22;54387;53.526;49.300;2023-05-01T15:52:34;25.10;29.50